AAR224 RKSI-KJFK
Flight info
| Callsign | AAR224 |
|---|---|
| Flight time | N/A |
| Altitude | 33000 |
| Route | EGOBA2Y EGOBA Y697 KAE Y437 TENAS/N0479F350 L512 GTC Y512 OATIS R580 OMOTO/N0481F360 R580 OGDEN/N0482F350 R580 OLCOT/N0489F370 R580 OBOYD DCT PORGE/N0464F350 A590 HAMND DCT AMOTT DCT YESKA NCA13 JAGIT DCT YXY DCT 60N130W DCT YPE DCT WAINN DCT SEGAP/N0459F370 DCT HML DCT DLH DCT TVC DCT TWIGS DCT JHW J106 MAGIO Q476 WLKES PUCKY1 |
| Aircraft | A388/J-SADE2E3FGHIJ3J4J5M1RWXYZ/LB1D1 |
Departure
| Time | 2026-05-03 20:46 |
|---|---|
| Airport | Incheon International Airport (RKSI) |
Arrival
| Time | N/A |
|---|---|
| Airport | John F. Kennedy International Airport (KJFK) |
| Time | Latitude | Longitude | Altitude | Speed | Heading |
|---|---|---|---|---|---|
| 2026-05-03 20:38 | 37.46981 | 126.44021 | 38 ft | 10 kts | 133° |
| 2026-05-03 20:38 | 37.46976 | 126.44093 | 38 ft | 10 kts | 58° |
| 2026-05-03 20:38 | 37.47018 | 126.44168 | 38 ft | 11 kts | 54° |
| 2026-05-03 20:38 | 37.47029 | 126.44234 | 38 ft | 7 kts | 120° |
| 2026-05-03 20:39 | 37.46996 | 126.44266 | 38 ft | 7 kts | 143° |
| 2026-05-03 20:39 | 37.46932 | 126.44325 | 38 ft | 13 kts | 145° |
| 2026-05-03 20:39 | 37.46852 | 126.44397 | 38 ft | 15 kts | 144° |
| 2026-05-03 20:39 | 37.46764 | 126.44476 | 38 ft | 16 kts | 144° |
| 2026-05-03 20:40 | 37.46668 | 126.44562 | 38 ft | 17 kts | 144° |
| 2026-05-03 20:40 | 37.46567 | 126.44652 | 38 ft | 18 kts | 144° |
| 2026-05-03 20:40 | 37.46460 | 126.44747 | 37 ft | 19 kts | 144° |
| 2026-05-03 20:40 | 37.46350 | 126.44845 | 37 ft | 20 kts | 144° |
| 2026-05-03 20:41 | 37.46233 | 126.44948 | 37 ft | 21 kts | 144° |
| 2026-05-03 20:41 | 37.46116 | 126.45052 | 37 ft | 21 kts | 144° |
| 2026-05-03 20:41 | 37.45995 | 126.45160 | 37 ft | 22 kts | 144° |
| 2026-05-03 20:41 | 37.45871 | 126.45271 | 37 ft | 22 kts | 144° |
| 2026-05-03 20:42 | 37.45745 | 126.45383 | 37 ft | 22 kts | 144° |
| 2026-05-03 20:42 | 37.45618 | 126.45496 | 37 ft | 22 kts | 144° |
| 2026-05-03 20:42 | 37.45491 | 126.45609 | 37 ft | 21 kts | 144° |
| 2026-05-03 20:42 | 37.45392 | 126.45697 | 37 ft | 16 kts | 144° |
| 2026-05-03 20:43 | 37.45308 | 126.45772 | 37 ft | 12 kts | 138° |
| 2026-05-03 20:43 | 37.45300 | 126.45838 | 37 ft | 8 kts | 70° |
| 2026-05-03 20:43 | 37.45334 | 126.45909 | 37 ft | 11 kts | 57° |
| 2026-05-03 20:43 | 37.45378 | 126.45988 | 37 ft | 12 kts | 53° |
| 2026-05-03 20:44 | 37.45426 | 126.46054 | 37 ft | 7 kts | 6° |
| 2026-05-03 20:44 | 37.45471 | 126.46044 | 37 ft | 4 kts | 324° |
| 2026-05-03 20:44 | 37.45481 | 126.46036 | 37 ft | 0 kts | 324° |
| 2026-05-03 20:45 | 37.45485 | 126.46032 | 37 ft | 7 kts | 324° |
| 2026-05-03 20:45 | 37.45716 | 126.45826 | 37 ft | 76 kts | 324° |
| 2026-05-03 20:45 | 37.46318 | 126.45289 | 37 ft | 133 kts | 325° |
| 2026-05-03 20:45 | 37.47183 | 126.44520 | 64 ft | 164 kts | 321° |
| 2026-05-03 20:46 | 37.48125 | 126.43720 | 476 ft | 164 kts | 323° |
| 2026-05-03 20:46 | 37.49083 | 126.42939 | 977 ft | 161 kts | 324° |
| 2026-05-03 20:46 | 37.50012 | 126.42172 | 1557 ft | 156 kts | 326° |
| 2026-05-03 20:46 | 37.50937 | 126.41408 | 1918 ft | 163 kts | 326° |
| 2026-05-03 20:47 | 37.51915 | 126.40600 | 2053 ft | 175 kts | 326° |
| 2026-05-03 20:47 | 37.52973 | 126.39731 | 2148 ft | 187 kts | 326° |
| 2026-05-03 20:47 | 37.54128 | 126.38781 | 2298 ft | 207 kts | 327° |
| 2026-05-03 20:47 | 37.55350 | 126.37796 | 2794 ft | 212 kts | 330° |
| 2026-05-03 20:48 | 37.56703 | 126.37031 | 3445 ft | 215 kts | 340° |
| 2026-05-03 20:48 | 37.58166 | 126.36526 | 4027 ft | 219 kts | 342° |
| 2026-05-03 20:48 | 37.59190 | 126.36174 | 4461 ft | 221 kts | 342° |
| 2026-05-03 20:48 | 37.60683 | 126.35646 | 5094 ft | 223 kts | 342° |
| 2026-05-03 20:49 | 37.62210 | 126.35245 | 5458 ft | 228 kts | 358° |
| 2026-05-03 20:49 | 37.63760 | 126.35774 | 5512 ft | 239 kts | 26° |
| 2026-05-03 20:49 | 37.64949 | 126.37304 | 5511 ft | 254 kts | 55° |
| 2026-05-03 20:49 | 37.65600 | 126.39402 | 5511 ft | 268 kts | 64° |
| 2026-05-03 20:50 | 37.66213 | 126.41675 | 5510 ft | 276 kts | 65° |
| 2026-05-03 20:50 | 37.66737 | 126.44009 | 5513 ft | 285 kts | 79° |
| 2026-05-03 20:50 | 37.66527 | 126.46545 | 5871 ft | 298 kts | 105° |
| 2026-05-03 20:50 | 37.65769 | 126.48985 | 6544 ft | 298 kts | 107° |
| 2026-05-03 20:51 | 37.65059 | 126.51405 | 7101 ft | 302 kts | 105° |
| 2026-05-03 20:51 | 37.64253 | 126.53940 | 7629 ft | 310 kts | 116° |
| 2026-05-03 20:51 | 37.62940 | 126.56125 | 8210 ft | 316 kts | 136° |
| 2026-05-03 20:51 | 37.61280 | 126.57975 | 8757 ft | 320 kts | 138° |
| 2026-05-03 20:52 | 37.59612 | 126.59857 | 9339 ft | 324 kts | 138° |
| 2026-05-03 20:52 | 37.57954 | 126.61753 | 9884 ft | 327 kts | 138° |
| 2026-05-03 20:52 | 37.56257 | 126.63698 | 10305 ft | 336 kts | 138° |
| 2026-05-03 20:52 | 37.54489 | 126.65722 | 10466 ft | 351 kts | 138° |
| 2026-05-03 20:53 | 37.52638 | 126.67837 | 10627 ft | 366 kts | 138° |
| 2026-05-03 20:53 | 37.50719 | 126.70028 | 10906 ft | 376 kts | 138° |
| 2026-05-03 20:53 | 37.48772 | 126.72249 | 11428 ft | 378 kts | 138° |
| 2026-05-03 20:53 | 37.46813 | 126.74481 | 11932 ft | 381 kts | 138° |
| 2026-05-03 20:54 | 37.44836 | 126.76732 | 12456 ft | 384 kts | 138° |
| 2026-05-03 20:54 | 37.41463 | 126.81882 | 13494 ft | 385 kts | 109° |
| 2026-05-03 20:54 | 37.40871 | 126.85132 | 13975 ft | 380 kts | 89° |
| 2026-05-03 20:55 | 37.40910 | 126.88403 | 14409 ft | 379 kts | 82° |
| 2026-05-03 20:55 | 37.41119 | 126.91754 | 14842 ft | 380 kts | 79° |
| 2026-05-03 20:55 | 37.41576 | 126.94979 | 15267 ft | 379 kts | 71° |
| 2026-05-03 20:55 | 37.42218 | 126.98193 | 15720 ft | 381 kts | 72° |
| 2026-05-03 20:56 | 37.42805 | 127.01481 | 16094 ft | 386 kts | 74° |
| 2026-05-03 20:56 | 37.43360 | 127.04809 | 16539 ft | 389 kts | 75° |
| 2026-05-03 20:56 | 37.43904 | 127.08151 | 16955 ft | 392 kts | 75° |
| 2026-05-03 20:56 | 37.44453 | 127.11524 | 17351 ft | 395 kts | 75° |
| 2026-05-03 20:57 | 37.45002 | 127.14901 | 17816 ft | 396 kts | 75° |
| 2026-05-03 20:57 | 37.45557 | 127.18304 | 18220 ft | 398 kts | 75° |
| 2026-05-03 20:57 | 37.46116 | 127.21734 | 18559 ft | 401 kts | 76° |
| 2026-05-03 20:57 | 37.46680 | 127.25196 | 18823 ft | 406 kts | 76° |
| 2026-05-03 20:58 | 37.47251 | 127.28704 | 19082 ft | 411 kts | 76° |
| 2026-05-03 20:58 | 37.47823 | 127.32232 | 19437 ft | 413 kts | 76° |
| 2026-05-03 20:58 | 37.48399 | 127.35790 | 19740 ft | 416 kts | 76° |
| 2026-05-03 20:58 | 37.48979 | 127.39380 | 20044 ft | 419 kts | 76° |
| 2026-05-03 20:59 | 37.49553 | 127.42942 | 20369 ft | 422 kts | 77° |
| 2026-05-03 20:59 | 37.50137 | 127.46577 | 20684 ft | 426 kts | 77° |
| 2026-05-03 20:59 | 37.50723 | 127.50226 | 21064 ft | 426 kts | 77° |
| 2026-05-03 20:59 | 37.51317 | 127.53931 | 21266 ft | 432 kts | 77° |
| 2026-05-03 21:00 | 37.51912 | 127.57657 | 21600 ft | 434 kts | 77° |
| 2026-05-03 21:00 | 37.52114 | 127.58922 | 21704 ft | 435 kts | 77° |
| 2026-05-03 21:00 | 37.53107 | 127.65156 | 22169 ft | 440 kts | 77° |
| 2026-05-03 21:00 | 37.53710 | 127.68956 | 22458 ft | 443 kts | 78° |
| 2026-05-03 21:01 | 37.54315 | 127.72773 | 22749 ft | 446 kts | 78° |
| 2026-05-03 21:01 | 37.54920 | 127.76595 | 22803 ft | 455 kts | 78° |
| 2026-05-03 21:01 | 37.55540 | 127.80515 | 23106 ft | 457 kts | 79° |
| 2026-05-03 21:01 | 37.56161 | 127.84452 | 23507 ft | 456 kts | 78° |
| 2026-05-03 21:02 | 37.56777 | 127.88366 | 23801 ft | 457 kts | 78° |
| 2026-05-03 21:02 | 37.57398 | 127.92316 | 23976 ft | 461 kts | 78° |
| 2026-05-03 21:02 | 37.58020 | 127.96295 | 24190 ft | 464 kts | 79° |
| 2026-05-03 21:02 | 37.58650 | 128.00326 | 24189 ft | 473 kts | 80° |
| 2026-05-03 21:03 | 37.59285 | 128.04408 | 24427 ft | 476 kts | 80° |
| 2026-05-03 21:03 | 37.59707 | 128.07127 | 24592 ft | 477 kts | 80° |
| 2026-05-03 21:03 | 37.60280 | 128.10819 | 24774 ft | 481 kts | 80° |
| 2026-05-03 21:03 | 37.60923 | 128.14975 | 25013 ft | 483 kts | 80° |
| 2026-05-03 21:04 | 37.61349 | 128.17732 | 25231 ft | 484 kts | 80° |
| 2026-05-03 21:04 | 37.61991 | 128.21889 | 25675 ft | 481 kts | 81° |
| 2026-05-03 21:04 | 37.62844 | 128.27443 | 25804 ft | 491 kts | 81° |
| 2026-05-03 21:04 | 37.63284 | 128.30310 | 25962 ft | 492 kts | 81° |
| 2026-05-03 21:05 | 37.63936 | 128.34563 | 26227 ft | 495 kts | 81° |
| 2026-05-03 21:05 | 37.64588 | 128.38841 | 26500 ft | 498 kts | 81° |
| 2026-05-03 21:05 | 37.65456 | 128.44552 | 26872 ft | 502 kts | 81° |
| 2026-05-03 21:05 | 37.65893 | 128.47433 | 27043 ft | 505 kts | 81° |
| 2026-05-03 21:06 | 37.66555 | 128.51801 | 27314 ft | 508 kts | 81° |
| 2026-05-03 21:06 | 37.67218 | 128.56186 | 27800 ft | 507 kts | 81° |
| 2026-05-03 21:06 | 37.67879 | 128.60569 | 28059 ft | 511 kts | 81° |
| 2026-05-03 21:06 | 37.68543 | 128.65010 | 28323 ft | 515 kts | 81° |
| 2026-05-03 21:07 | 37.69842 | 128.74003 | 28628 ft | 525 kts | 86° |
| 2026-05-03 21:07 | 37.70070 | 128.78591 | 28966 ft | 523 kts | 95° |
| 2026-05-03 21:07 | 37.69995 | 128.83195 | 29236 ft | 526 kts | 96° |
| 2026-05-03 21:08 | 37.69937 | 128.87818 | 29555 ft | 528 kts | 95° |
| 2026-05-03 21:08 | 37.69886 | 128.92484 | 29776 ft | 533 kts | 96° |
| 2026-05-03 21:08 | 37.69835 | 128.97110 | 30147 ft | 532 kts | 96° |
| 2026-05-03 21:08 | 37.69782 | 129.01798 | 30482 ft | 533 kts | 96° |
| 2026-05-03 21:09 | 37.69725 | 129.06499 | 30707 ft | 536 kts | 96° |
| 2026-05-03 21:09 | 37.69665 | 129.11206 | 30980 ft | 538 kts | 96° |
| 2026-05-03 21:09 | 37.69603 | 129.15944 | 31140 ft | 541 kts | 97° |
| 2026-05-03 21:09 | 37.69536 | 129.20712 | 31353 ft | 544 kts | 97° |
| 2026-05-03 21:10 | 37.69469 | 129.25498 | 31644 ft | 546 kts | 97° |
| 2026-05-03 21:10 | 37.69399 | 129.30314 | 31903 ft | 548 kts | 97° |
| 2026-05-03 21:10 | 37.69328 | 129.35129 | 32156 ft | 550 kts | 97° |
| 2026-05-03 21:10 | 37.69255 | 129.39910 | 32247 ft | 554 kts | 98° |
| 2026-05-03 21:11 | 37.69177 | 129.44789 | 32462 ft | 557 kts | 98° |
| 2026-05-03 21:11 | 37.69098 | 129.49689 | 32710 ft | 559 kts | 98° |
| 2026-05-03 21:11 | 37.68928 | 129.59630 | 32730 ft | 575 kts | 98° |
| 2026-05-03 21:12 | 37.68816 | 129.66004 | 32728 ft | 581 kts | 98° |
| 2026-05-03 21:12 | 37.68747 | 129.70003 | 32693 ft | 581 kts | 98° |
| 2026-05-03 21:13 | 37.68659 | 129.75090 | 32897 ft | 577 kts | 98° |
| 2026-05-03 21:13 | 37.68564 | 129.80200 | 32719 ft | 583 kts | 98° |
| 2026-05-03 21:13 | 37.68362 | 129.90465 | 32725 ft | 585 kts | 98° |
| 2026-05-03 21:14 | 37.68157 | 130.00681 | 32713 ft | 585 kts | 98° |
| 2026-05-03 21:14 | 37.67940 | 130.10967 | 32712 ft | 590 kts | 99° |
| 2026-05-03 21:15 | 37.67710 | 130.21361 | 32714 ft | 592 kts | 99° |
| 2026-05-03 21:15 | 37.67475 | 130.31740 | 32712 ft | 592 kts | 99° |
| 2026-05-03 21:16 | 37.67231 | 130.42076 | 32705 ft | 592 kts | 99° |
| 2026-05-03 21:16 | 37.66976 | 130.52479 | 32713 ft | 596 kts | 101° |
| 2026-05-03 21:17 | 37.66749 | 130.61275 | 32698 ft | 600 kts | 101° |
| 2026-05-03 21:17 | 37.66432 | 130.73533 | 32698 ft | 600 kts | 101° |
| 2026-05-03 21:18 | 37.66148 | 130.84014 | 32676 ft | 602 kts | 102° |
| 2026-05-03 21:18 | 37.65849 | 130.94606 | 32691 ft | 603 kts | 102° |
| 2026-05-03 21:19 | 37.65546 | 131.05118 | 32678 ft | 603 kts | 102° |
| 2026-05-03 21:19 | 37.65231 | 131.15686 | 32676 ft | 602 kts | 102° |
| 2026-05-03 21:20 | 37.64900 | 131.26300 | 32811 ft | 609 kts | 102° |
| 2026-05-03 21:20 | 37.64733 | 131.31630 | 33198 ft | 609 kts | 102° |
| 2026-05-03 21:20 | 37.64565 | 131.36981 | 33598 ft | 608 kts | 102° |
| 2026-05-03 21:21 | 37.64394 | 131.42313 | 33977 ft | 606 kts | 102° |
| 2026-05-03 21:21 | 37.64222 | 131.47625 | 34401 ft | 603 kts | 102° |
| 2026-05-03 21:21 | 37.64049 | 131.52849 | 34617 ft | 602 kts | 102° |
| 2026-05-03 21:21 | 37.63876 | 131.58098 | 34672 ft | 598 kts | 102° |
| 2026-05-03 21:22 | 37.63859 | 131.68653 | 34668 ft | 604 kts | 98° |
| 2026-05-03 21:22 | 37.63999 | 131.79248 | 34667 ft | 603 kts | 98° |
| 2026-05-03 21:23 | 37.64073 | 131.89784 | 34662 ft | 603 kts | 99° |
| 2026-05-03 21:23 | 37.64113 | 132.00363 | 34666 ft | 604 kts | 99° |
| 2026-05-03 21:24 | 37.64142 | 132.10953 | 34666 ft | 603 kts | 99° |
| 2026-05-03 21:24 | 37.64163 | 132.21518 | 34660 ft | 602 kts | 99° |
| 2026-05-03 21:25 | 37.64171 | 132.27703 | 34665 ft | 602 kts | 99° |
| 2026-05-03 21:25 | 37.64177 | 132.38185 | 34673 ft | 599 kts | 100° |
| 2026-05-03 21:26 | 37.64174 | 132.48681 | 34649 ft | 598 kts | 100° |
| 2026-05-03 21:26 | 37.64160 | 132.59190 | 34645 ft | 597 kts | 100° |
| 2026-05-03 21:27 | 37.64302 | 132.69700 | 34672 ft | 605 kts | 93° |
| 2026-05-03 21:27 | 37.65133 | 132.80269 | 34663 ft | 602 kts | 93° |
| 2026-05-03 21:28 | 37.65928 | 132.90716 | 34649 ft | 601 kts | 94° |
| 2026-05-03 21:28 | 37.66709 | 133.01232 | 34642 ft | 600 kts | 94° |
| 2026-05-03 21:29 | 37.67476 | 133.11700 | 34645 ft | 598 kts | 94° |
| 2026-05-03 21:29 | 37.68228 | 133.22089 | 34632 ft | 597 kts | 94° |
| 2026-05-03 21:30 | 37.68974 | 133.32491 | 34643 ft | 594 kts | 94° |
| 2026-05-03 21:30 | 37.69708 | 133.42894 | 34612 ft | 593 kts | 94° |
| 2026-05-03 21:31 | 37.70431 | 133.53257 | 34631 ft | 591 kts | 94° |
| 2026-05-03 21:31 | 37.71144 | 133.63603 | 34620 ft | 590 kts | 94° |
| 2026-05-03 21:32 | 37.71846 | 133.73932 | 34627 ft | 588 kts | 94° |
| 2026-05-03 21:32 | 37.72520 | 133.84159 | 34620 ft | 588 kts | 95° |
| 2026-05-03 21:33 | 37.73193 | 133.94432 | 34623 ft | 588 kts | 95° |
| 2026-05-03 21:33 | 37.73865 | 134.04763 | 34623 ft | 588 kts | 95° |
| 2026-05-03 21:34 | 37.74523 | 134.15058 | 34621 ft | 588 kts | 95° |
| 2026-05-03 21:34 | 37.75170 | 134.25340 | 34616 ft | 586 kts | 94° |
| 2026-05-03 21:35 | 37.75804 | 134.35572 | 34609 ft | 587 kts | 94° |
| 2026-05-03 21:35 | 37.76434 | 134.45864 | 34627 ft | 588 kts | 95° |
| 2026-05-03 21:36 | 37.77055 | 134.56169 | 34636 ft | 588 kts | 95° |
| 2026-05-03 21:36 | 37.77668 | 134.66497 | 34605 ft | 587 kts | 94° |
| 2026-05-03 21:37 | 37.78273 | 134.76810 | 34623 ft | 587 kts | 94° |
| 2026-05-03 21:37 | 37.78867 | 134.87118 | 34626 ft | 587 kts | 94° |
| 2026-05-03 21:38 | 37.79448 | 134.97359 | 34631 ft | 587 kts | 95° |
| 2026-05-03 21:38 | 37.80024 | 135.07671 | 34629 ft | 587 kts | 95° |
| 2026-05-03 21:39 | 37.80591 | 135.17978 | 34606 ft | 587 kts | 94° |
| 2026-05-03 21:39 | 37.81149 | 135.28281 | 34616 ft | 587 kts | 94° |
| 2026-05-03 21:40 | 37.81696 | 135.38560 | 34613 ft | 588 kts | 94° |
| 2026-05-03 21:40 | 37.82237 | 135.48895 | 34621 ft | 589 kts | 95° |
| 2026-05-03 21:41 | 37.82770 | 135.59252 | 34589 ft | 590 kts | 95° |
| 2026-05-03 21:41 | 37.83296 | 135.69644 | 34614 ft | 591 kts | 94° |
| 2026-05-03 21:42 | 37.83813 | 135.80037 | 34625 ft | 592 kts | 94° |
| 2026-05-03 21:42 | 37.84321 | 135.90437 | 34631 ft | 593 kts | 94° |
| 2026-05-03 21:43 | 37.84819 | 136.00810 | 34645 ft | 593 kts | 95° |
| 2026-05-03 21:43 | 37.85310 | 136.11251 | 34634 ft | 594 kts | 95° |
| 2026-05-03 21:44 | 37.85792 | 136.21686 | 34640 ft | 594 kts | 95° |
| 2026-05-03 21:44 | 37.86263 | 136.32089 | 34641 ft | 594 kts | 95° |
| 2026-05-03 21:45 | 37.86724 | 136.42467 | 34631 ft | 594 kts | 95° |
| 2026-05-03 21:45 | 37.87179 | 136.52915 | 34617 ft | 593 kts | 95° |
| 2026-05-03 21:46 | 37.87623 | 136.63342 | 34615 ft | 593 kts | 95° |
| 2026-05-03 21:46 | 37.88058 | 136.73773 | 34618 ft | 593 kts | 95° |
| 2026-05-03 21:47 | 37.88484 | 136.84204 | 34637 ft | 592 kts | 95° |
| 2026-05-03 21:47 | 37.88901 | 136.94617 | 34640 ft | 592 kts | 95° |
| 2026-05-03 21:48 | 37.89306 | 137.04977 | 34624 ft | 590 kts | 95° |
| 2026-05-03 21:48 | 37.89637 | 137.13609 | 34648 ft | 589 kts | 95° |
| 2026-05-03 21:49 | 37.90095 | 137.25722 | 34642 ft | 588 kts | 95° |
| 2026-05-03 21:49 | 37.90416 | 137.34311 | 34636 ft | 587 kts | 95° |
| 2026-05-03 21:50 | 37.90803 | 137.44632 | 34632 ft | 586 kts | 95° |
| 2026-05-03 21:50 | 37.91184 | 137.54955 | 34618 ft | 586 kts | 95° |
| 2026-05-03 21:51 | 37.91554 | 137.65270 | 34612 ft | 586 kts | 95° |
| 2026-05-03 21:51 | 37.91913 | 137.75528 | 34623 ft | 586 kts | 95° |
| 2026-05-03 21:52 | 37.92267 | 137.85876 | 34631 ft | 587 kts | 95° |
| 2026-05-03 21:52 | 37.92609 | 137.96134 | 34638 ft | 587 kts | 96° |
| 2026-05-03 21:53 | 37.92944 | 138.06466 | 34640 ft | 587 kts | 95° |
| 2026-05-03 21:53 | 37.93271 | 138.16820 | 34646 ft | 588 kts | 95° |
| 2026-05-03 21:54 | 37.93588 | 138.27170 | 34647 ft | 588 kts | 96° |
| 2026-05-03 21:54 | 37.93899 | 138.37537 | 34646 ft | 588 kts | 95° |
| 2026-05-03 21:55 | 37.94197 | 138.47911 | 34607 ft | 588 kts | 95° |
| 2026-05-03 21:55 | 37.94486 | 138.58283 | 34627 ft | 589 kts | 95° |
| 2026-05-03 21:56 | 37.94766 | 138.68588 | 34638 ft | 590 kts | 95° |
| 2026-05-03 21:56 | 37.95039 | 138.78997 | 34636 ft | 590 kts | 95° |
| 2026-05-03 21:57 | 37.95303 | 138.89388 | 34631 ft | 590 kts | 95° |
| 2026-05-03 21:57 | 37.95558 | 138.99814 | 34604 ft | 590 kts | 95° |
| 2026-05-03 21:58 | 37.95806 | 139.10207 | 34611 ft | 590 kts | 95° |
| 2026-05-03 21:58 | 37.96802 | 139.20630 | 34611 ft | 597 kts | 88° |
| 2026-05-03 21:59 | 37.97921 | 139.31013 | 34664 ft | 597 kts | 89° |
| 2026-05-03 21:59 | 37.99023 | 139.41451 | 34683 ft | 597 kts | 89° |
| 2026-05-03 22:00 | 38.00120 | 139.51932 | 34621 ft | 598 kts | 89° |
| 2026-05-03 22:00 | 38.01196 | 139.62305 | 34671 ft | 597 kts | 89° |
| 2026-05-03 22:01 | 38.02268 | 139.72763 | 34665 ft | 597 kts | 89° |
| 2026-05-03 22:01 | 38.03335 | 139.83218 | 34659 ft | 596 kts | 89° |
| 2026-05-03 22:02 | 38.04380 | 139.93573 | 34629 ft | 595 kts | 89° |
| 2026-05-03 22:02 | 38.05422 | 140.03995 | 34620 ft | 594 kts | 89° |
| 2026-05-03 22:03 | 38.06456 | 140.14412 | 34605 ft | 592 kts | 89° |
| 2026-05-03 22:03 | 38.07466 | 140.24700 | 34614 ft | 591 kts | 89° |
| 2026-05-03 22:04 | 38.08475 | 140.35062 | 34597 ft | 591 kts | 89° |
| 2026-05-03 22:04 | 38.09473 | 140.45430 | 34583 ft | 592 kts | 89° |
| 2026-05-03 22:05 | 38.10468 | 140.55834 | 34576 ft | 593 kts | 89° |
| 2026-05-03 22:05 | 38.11451 | 140.66236 | 34567 ft | 595 kts | 89° |
| 2026-05-03 22:06 | 38.12432 | 140.76707 | 34558 ft | 595 kts | 89° |
| 2026-05-03 22:06 | 38.13397 | 140.87140 | 34574 ft | 594 kts | 90° |
| 2026-05-03 22:07 | 38.13294 | 140.97374 | 34559 ft | 576 kts | 106° |
| 2026-05-03 22:07 | 38.12131 | 141.07428 | 34554 ft | 574 kts | 106° |
| 2026-05-03 22:08 | 38.11005 | 141.17468 | 34548 ft | 574 kts | 106° |
| 2026-05-03 22:08 | 38.09866 | 141.27505 | 34547 ft | 574 kts | 106° |
| 2026-05-03 22:09 | 38.08721 | 141.37476 | 34548 ft | 573 kts | 107° |
| 2026-05-03 22:10 | 38.06976 | 141.52518 | 34548 ft | 573 kts | 107° |
| 2026-05-03 22:10 | 38.05803 | 141.62529 | 34551 ft | 572 kts | 106° |
| 2026-05-03 22:11 | 38.04631 | 141.72460 | 34548 ft | 572 kts | 106° |
| 2026-05-03 22:11 | 38.03444 | 141.82450 | 34529 ft | 572 kts | 107° |
| 2026-05-03 22:12 | 38.02250 | 141.92416 | 34523 ft | 570 kts | 107° |
| 2026-05-03 22:12 | 38.01051 | 142.02356 | 34552 ft | 569 kts | 107° |
| 2026-05-03 22:13 | 37.99846 | 142.12270 | 34549 ft | 568 kts | 107° |
| 2026-05-03 22:13 | 37.98637 | 142.22123 | 34544 ft | 568 kts | 107° |
| 2026-05-03 22:14 | 37.97418 | 142.31999 | 34525 ft | 567 kts | 107° |
| 2026-05-03 22:14 | 37.96193 | 142.41855 | 34555 ft | 566 kts | 107° |
| 2026-05-03 22:15 | 37.94960 | 142.51700 | 34552 ft | 565 kts | 107° |
| 2026-05-03 22:15 | 37.93726 | 142.61486 | 34558 ft | 564 kts | 107° |
| 2026-05-03 22:16 | 37.92482 | 142.71289 | 34571 ft | 562 kts | 107° |
| 2026-05-03 22:16 | 37.91231 | 142.81078 | 34561 ft | 562 kts | 107° |
| 2026-05-03 22:17 | 37.89979 | 142.90805 | 34557 ft | 561 kts | 107° |
| 2026-05-03 22:17 | 37.88714 | 143.00565 | 34560 ft | 561 kts | 107° |
| 2026-05-03 22:18 | 37.87439 | 143.10337 | 34566 ft | 560 kts | 107° |
| 2026-05-03 22:18 | 37.86163 | 143.20062 | 34569 ft | 560 kts | 107° |
| 2026-05-03 22:19 | 37.84886 | 143.29728 | 34571 ft | 561 kts | 107° |
| 2026-05-03 22:19 | 37.83589 | 143.39472 | 34582 ft | 561 kts | 107° |
| 2026-05-03 22:20 | 37.83065 | 143.49389 | 34608 ft | 575 kts | 89° |
| 2026-05-03 22:20 | 37.83767 | 143.54411 | 34590 ft | 583 kts | 77° |
| 2026-05-03 22:20 | 37.85123 | 143.59243 | 34591 ft | 587 kts | 66° |
| 2026-05-03 22:20 | 37.87104 | 143.63765 | 34591 ft | 588 kts | 55° |
| 2026-05-03 22:21 | 37.89649 | 143.67824 | 34598 ft | 586 kts | 44° |
| 2026-05-03 22:21 | 37.92634 | 143.71244 | 34612 ft | 582 kts | 33° |
| 2026-05-03 22:21 | 37.96023 | 143.74001 | 34581 ft | 575 kts | 21° |
| 2026-05-03 22:22 | 38.03104 | 143.78710 | 34640 ft | 578 kts | 28° |
| 2026-05-03 22:22 | 38.09601 | 143.84830 | 34627 ft | 582 kts | 36° |
| 2026-05-03 22:23 | 38.15706 | 143.91523 | 34623 ft | 582 kts | 38° |
| 2026-05-03 22:23 | 38.21788 | 143.98331 | 34626 ft | 581 kts | 38° |
| 2026-05-03 22:24 | 38.27863 | 144.05120 | 34581 ft | 581 kts | 38° |
| 2026-05-03 22:24 | 38.33949 | 144.11926 | 34583 ft | 581 kts | 38° |
| 2026-05-03 22:25 | 38.40028 | 144.18737 | 34584 ft | 582 kts | 38° |